Ride Results

Killarney (14-04-2018)
Ride distance: 80.0 km

Outcomes - Killarney (14-04-2018)
Division No. of Entries Retired / DNE Completed Withdrawn Ineligible V/O Percentage Completed
HW 13 - 10 - - 3 76.92%
MW 24 - 17 2 - 5 70.83%
LW 23 - 19 1 - 3 82.61%
JN 19 - 17 - - 2 89.47%
Totals 79 - 63 3 - 13 79.75%
Results - Killarney (14-04-2018)
No. Rider Horse Place Time Leg Speeds Total
Km/Hr
H/R bpm
Heavyweight
37 Greg Lyon Chingford Just Dreaming 1 (BC) 5:05:29 16.7, 14.8 15.71 33, 36, 50 (Avg:43)
66 Mark Nimon Abbeywood Cochise 2 5:29:00 15.3, 13.8 14.59 35, 45, 50 (Avg:47)
42 Maurice Gray Nathan Park Estasans Legacy 3 5:38:00 14.9, 13.5 14.20 39, 48, 52 (Avg:50)
70 Matthew Gadsby Aphrodite Malakia 4 5:47:00 13.2, 14.4 13.83 34, 40, 46 (Avg:43)
73 Derryn Nix Homeleigh Mountain Nazeem 5 6:01:00 13.5, 13.0 13.30 39, 38, 60 (Avg:49)
52 Troy Butler Cairo's Crystal 6 6:02:00 13.1, 13.3 13.26 42, 51, 55 (Avg:53)
44 Doug Dart Cameo Moon River 7 6:21:00 13.1, 12.1 12.60 31, 38, 40 (Avg:39)
85 Jago Blonde Dream Raider 8 7:38:00 10.2, 10.7 10.48 36, 49, 50 (Avg:49)
79 Luke Annetts Churinga Taboo 9 7:39:00 10.8, 10.1 10.46 33, 42, 42 (Avg:42)
39 Gillian Taylor Cool Water Moonstone 10 8:32:00 10.0, 8.7 9.38 44, 45, 48 (Avg:46)
61 Terry Wasmund Burralga Jack Daniels Lame L2 0:00:00 12.6, 10.8 - 34, 46, 51 (Avg:48)
83 Roy Barsby Dumaresq Buzz Lame L1 0:00:00 12.5 - 38, 44 (Avg:44)
20 Hayley Billaney Larnie Lame L1 0:00:00 9.7 - 32, 44 (Avg:44)
Middleweight
56 Gina Matthews Monarchs Knight 1 (BC) 4:55:00 17.2, 15.3 16.27 33, 47, 51 (Avg:49)
4 Pamela Karner Castlebar Link 2 5:29:00 16.1, 13.2 14.59 43, 43, 47 (Avg:45)
62 Rachel Stephens Bacchante Dreamworks 3 5:38:00 14.9, 13.5 14.20 34, 42, 53 (Avg:47)
23 Brook Sample Gheerulla Asterix 4 5:44:00 14.8, 13.1 13.95 33, 48, 50 (Avg:49)
1 Alex Moir Picnic Park Vanita 5 6:10:00 12.9, 12.9 12.97 48, 45, 49 (Avg:47)
81 Rachel Brown Houdini 6 6:25:00 12.9, 12.0 12.47 37, 42, 47 (Avg:44)
27 Jessie Herman Berwick Blazing Red 7 6:43:00 12.4, 11.3 11.91 28, 35, 36 (Avg:35)
84 Jo Barsby Dumaresq Platinum 8 6:47:00 12.5, 11.1 11.79 32, 40, 44 (Avg:42)
11 Christopher Schofield Briallyn Alimah 9 6:49:00 11.4, 12.0 11.74 31, 39, 46 (Avg:42)
21 Emily Markey Briallyn Kirra Bint Zanir 10 6:51:00 12.4, 11.0 11.68 35, 50, 54 (Avg:52)
69 Karen Lee Chika Canela 11 6:54:00 11.6, 11.5 11.59 40, 45, 51 (Avg:48)
57 Fiona Fenech Aqaba Bronson 12 7:03:00 12.2, 10.5 11.35 40, 48, 54 (Avg:51)
78 Jennifer Annetts Churinga Trickortreat 13 7:39:00 10.7, 10.2 10.46 32, 44, 46 (Avg:45)
14 Virginia Barber Lil Mister Ultimate 14 8:01:00 10.5, 9.4 9.98 38, 51, 58 (Avg:54)
6 Jill Free Katushka 15 8:06:00 11.5, 8.6 9.88 34, 50, 54 (Avg:52)
7 Kaylyn Free Blue Beatson 15 8:06:00 11.7, 8.5 9.88 32, 37, 48 (Avg:42)
5 Angela Head Jazda Conan 17 8:25:00 10.3, 8.7 9.50 34, 49, 52 (Avg:50)
82 Shay Corbett Kaleba Barjuma Lame L2 0:00:00 13.2, 8.9 - 45, 50, 63 (Avg:56)
35 Bec Cronin Petama Springtime Jewel Heart Rate L2 0:00:00 12.6, 10.9 - 35, 48, 75 (Avg:61)
38 Lexi Morton Cool Water Safara Lame L2 0:00:00 10.0, 61.5 - 31, 45, 43 (Avg:44)
72 Corey Nix Macrocarpa Pleiade Lame L2 0:00:00 10.7, 10.5 - 42, 46, 47 (Avg:46)
9 Sharon Foster Sharabel Maleka Lame L1 0:00:00 11.4 - 30, 43 (Avg:43)
86 Christal Rizk Kynnum Park Jai Withdrawn L1 0:00:00 - - 39, 46 (Avg:46)
36 Julie Stenhouse Amarillo Park Khaan Withdrawn L1 0:00:00 - - 34, 49 (Avg:49)
Lightweight
63 Shelley Chapman Sahala Astronomer 1 (BC) 4:55:00 17.2, 15.3 16.27 34, 45, 51 (Avg:48)
71 Mindy Davies Maximus Ra 2 5:47:00 13.2, 14.4 13.83 40, 49, 49 (Avg:49)
45 Meleita Dart Gazal El Adien 3 6:21:00 13.1, 12.1 12.60 39, 40, 43 (Avg:41)
17 Cathy Ferguson Al Wathba Tazmir 4 6:40:00 13.2, 10.9 12.00 32, 44, 51 (Avg:47)
26 Renae Chapman Magic Glenn Kavita 5 6:43:00 12.4, 11.4 11.91 30, 40, 42 (Avg:41)
31 Brittney McInnes Magic Glenn Azulia 5 6:43:00 12.4, 11.3 11.91 30, 45, 44 (Avg:44)
55 Jocelyn Barnes Trinity 7 6:50:00 11.8, 11.5 11.71 31, 49, 58 (Avg:53)
60 Emma Dimech Rosevale Park Bay Sarin 8 7:03:00 12.2, 10.5 11.35 36, 44, 37 (Avg:40)
58 Sarah Huddleston Saraid Diamant 8 7:03:00 12.2, 10.6 11.35 36, 36, 37 (Avg:36)
25 Lizzy Cleland Brookleigh Delaware 10 7:18:00 10.8, 11.0 10.96 35, 43, 47 (Avg:45)
48 Clare Fleming Flemingo SS 11 7:21:00 11.3, 10.4 10.88 36, 44, 55 (Avg:49)
19 Janelle Taylor Elite Samaree 12 7:28:00 10.5, 10.8 10.71 57, 48, 48 (Avg:48)
54 Isabella Teh Gundiwidgee Legolas 13 7:35:00 10.6, 10.4 10.55 47, 42, 51 (Avg:46)
2 Ute Jordan Count Shahahan 14 7:36:00 10.6, 10.4 10.53 33, 38, 41 (Avg:39)
3 Belinda Redhead Charaway M 'Adore 14 7:36:00 10.6, 10.4 10.53 37, 44, 43 (Avg:43)
12 Tracey Hutchinson Woodbourne Buck Brown 16 7:38:00 10.7, 10.2 10.48 40, 48, 53 (Avg:50)
46 Renee Trunley Misty Day 17 7:57:00 11.0, 9.2 10.06 37, 46, 49 (Avg:47)
32 Alexa Field Brookleigh Marlon 18 7:58:00 11.1, 9.1 10.04 34, 54, 56 (Avg:55)
64 Sabrina Stephens Cameo Cinderella 19 8:25:00 11.9, 7.8 9.50 36, 45, 50 (Avg:47)
8 Karen Winkel Ranek Boz Lame L2 0:00:00 17.2, 14.4 - 46, 49, 51 (Avg:50)
13 Ema Basic Melton Teddy Bear Heart Rate L1 0:00:00 10.5 - 32, 56 (Avg:56)
16 Narelle Childs Maxwell Staccato Lame L1 0:00:00 16.7 - 34, 42 (Avg:42)
30 Jorja McInnes Gheerulla Delia Withdrawn P/R 0:00:00 - - 34, 48 (Avg:48)
Junior
67 Charlize Renner Edenfels Crystal Kaz 1 (BC) 5:26:00 14.9, 14.5 14.72 33, 42, 46 (Avg:44)
22 Louis Ryan Kholonial Amigo 1 5:26:00 14.6, 14.8 14.72 35, 39, 50 (Avg:44)
24 Zac Sample Magic Glenn Gazelle 3 5:44:00 14.8, 13.1 13.95 37, 43, 49 (Avg:46)
75 Talyn Nix Homeleigh Mountain Khalid's Komet 4 6:01:00 13.6, 12.9 13.30 34, 43, 49 (Avg:46)
43 Ben Hoey Pocket Rocket Patience 5 6:05:00 12.9, 13.3 13.15 36, 45, 50 (Avg:47)
47 Scarlet McQueen Lara's Song 6 6:25:00 12.9, 12.0 12.47 38, 41, 52 (Avg:46)
18 Aimee Jeffrey Red Capri 7 6:40:00 13.2, 10.9 12.00 33, 44, 42 (Avg:43)
10 Modena Schofield-Foster Sharabel Kalarney 8 6:49:00 11.4, 12.0 11.74 36, 38, 49 (Avg:43)
59 Cameron Lee Sweet Honesty Molleeh 9 7:03:00 12.2, 10.5 11.35 40, 39, 41 (Avg:40)
28 Adi Imray Gheerulla Anisah 10 7:18:00 12.6, 9.6 10.96 35, 46, 48 (Avg:47)
50 Leesy Smith Bara Park Miricle Man 11 7:21:00 11.3, 10.4 10.88 46, 44, 50 (Avg:47)
76 Sanjay Nix Castlebar Consort 12 7:31:00 10.7, 10.5 10.64 34, 42, 47 (Avg:44)
34 Georgia Drew La Battist Oliver Twist 13 7:35:00 10.6, 10.4 10.55 34, 40, 48 (Avg:44)
49 Molly Choyce Charaway True Perle 14 7:56:00 11.0, 9.2 10.08 37, 43, 46 (Avg:44)
33 Nessy Field Kidaman Ashquar 15 7:58:00 11.1, 9.1 10.04 39, 45, 56 (Avg:50)
80 Noah Hoogland Steel Poppy Hot Chocolate 16 8:25:00 10.3, 8.7 9.50 35, 42, 49 (Avg:45)
40 Georgia Morton Mt Eerwah Silver Mariner 17 8:32:00 10.0, 8.7 9.38 29, 42, 45 (Avg:43)
15 Georgie Barber Silver Factor Lame L2 0:00:00 10.6, 9.4 - 42, 48, 52 (Avg:50)
77 Tamara Gibson Dunbar Magnolia Lame L2 0:00:00 13.0, 11.1 - 30, 36, 42 (Avg:39)